createdAt,value
2019-04-10T00:00:57.843Z,32.70
2019-04-10T00:03:36.730Z,32.57
2019-04-10T00:06:04.595Z,34.17
2019-04-10T00:08:38.632Z,30.23
2019-04-10T00:11:10.142Z,33.07
2019-04-10T00:13:41.490Z,32.87
2019-04-10T00:16:11.917Z,32.83
2019-04-10T00:18:44.323Z,35.70
2019-04-10T00:21:17.664Z,36.80
2019-04-10T00:23:47.908Z,38.10
2019-04-10T00:26:28.483Z,36.40
2019-04-10T00:29:08.830Z,33.90
2019-04-10T00:31:38.473Z,35.23
2019-04-10T00:34:09.810Z,32.70
2019-04-10T00:36:39.543Z,34.00
2019-04-10T00:39:12.870Z,32.10
2019-04-10T00:41:51.008Z,33.63
2019-04-10T00:44:34.135Z,29.10
2019-04-10T00:47:04.548Z,31.03
2019-04-10T00:49:39.959Z,32.33
2019-04-10T00:52:12.811Z,27.10
2019-04-10T00:54:45.234Z,30.43
2019-04-10T00:57:22.011Z,34.23
2019-04-10T00:59:55.114Z,29.57
2019-04-10T01:02:29.150Z,29.77
2019-04-10T01:05:03.498Z,28.50
2019-04-10T01:07:40.972Z,30.70
2019-04-10T01:10:16.110Z,27.67
2019-04-10T01:12:48.156Z,28.97
2019-04-10T01:15:26.650Z,28.67
2019-04-10T01:17:59.718Z,28.00
2019-04-10T01:20:31.288Z,27.07
2019-04-10T01:23:01.497Z,29.53
2019-04-10T01:25:34.599Z,27.37
2019-04-10T01:28:08.768Z,27.80
2019-04-10T01:30:40.492Z,27.03
2019-04-10T01:33:16.603Z,27.63
2019-04-10T01:35:47.227Z,26.40
2019-04-10T01:38:19.678Z,27.43
2019-04-10T01:40:55.582Z,24.47
2019-04-10T01:43:28.857Z,27.27
2019-04-10T01:46:00.013Z,25.03
2019-04-10T01:48:30.295Z,24.83
2019-04-10T01:51:07.309Z,28.93
2019-04-10T01:53:38.913Z,24.70
2019-04-10T01:56:22.851Z,24.80
2019-04-10T01:58:51.827Z,23.37
2019-04-10T02:01:40.780Z,24.60
2019-04-10T02:04:12.258Z,22.40
2019-04-10T02:06:55.909Z,25.33
2019-04-10T02:09:29.760Z,26.83
2019-04-10T02:12:04.087Z,24.37
2019-04-10T02:14:38.578Z,24.87
2019-04-10T02:17:10.462Z,27.87
2019-04-10T02:19:42.724Z,25.43
2019-04-10T02:22:17.223Z,24.53
2019-04-10T02:24:47.492Z,25.90
2019-04-10T02:27:22.407Z,26.27
2019-04-10T02:29:53.161Z,26.57
2019-04-10T02:32:26.308Z,28.77
2019-04-10T02:35:03.654Z,25.33
2019-04-10T02:37:49.352Z,23.67
2019-04-10T02:40:19.267Z,27.00
2019-04-10T02:42:51.346Z,27.73
2019-04-10T02:45:26.741Z,30.57
2019-04-10T02:48:04.114Z,28.30
2019-04-10T02:50:45.133Z,29.83
2019-04-10T02:53:35.165Z,32.73
2019-04-10T02:56:08.351Z,29.80
2019-04-10T02:58:40.269Z,31.63
2019-04-10T03:01:19.655Z,34.67
2019-04-10T03:03:55.532Z,32.33
2019-04-10T03:06:28.955Z,31.13
2019-04-10T03:09:19.114Z,33.23
2019-04-10T03:11:39.677Z,33.47
2019-04-10T03:14:12.705Z,35.13
2019-04-10T03:16:46.607Z,36.77
2019-04-10T03:19:22.011Z,35.73
2019-04-10T03:21:53.449Z,36.57
2019-04-10T03:24:25.642Z,35.37
2019-04-10T03:27:05.778Z,35.53
2019-04-10T03:29:40.632Z,40.20
2019-04-10T03:32:36.249Z,38.23
2019-04-10T03:35:18.627Z,43.10
2019-04-10T03:37:52.907Z,38.33
2019-04-10T03:40:25.126Z,41.10
2019-04-10T03:42:57.197Z,38.83
2019-04-10T03:45:36.904Z,36.73
2019-04-10T03:48:08.508Z,38.00
2019-04-10T03:50:43.670Z,42.83
2019-04-10T03:53:16.785Z,38.57
2019-04-10T03:56:23.451Z,34.23
2019-04-10T03:58:54.591Z,38.87
2019-04-10T04:01:29.902Z,37.47
2019-04-10T04:04:01.536Z,36.90
2019-04-10T04:44:29.300Z,37.77
2019-04-10T04:47:03.394Z,41.20
2019-04-10T04:49:35.792Z,41.53
2019-04-10T04:52:11.212Z,37.98
2019-04-10T04:54:41.836Z,41.55
2019-04-10T04:57:20.426Z,41.83
2019-04-10T04:59:48.270Z,37.23
2019-04-10T05:02:32.167Z,36.00
2019-04-10T05:05:04.480Z,40.70
2019-04-10T05:07:39.611Z,35.80
2019-04-10T06:13:20.474Z,41.17
2019-04-10T06:16:01.446Z,40.77
2019-04-10T06:18:38.206Z,36.40
2019-04-10T06:21:07.966Z,37.93
2019-04-10T06:23:44.614Z,40.13
2019-04-10T06:26:16.507Z,37.83
2019-04-10T06:28:50.479Z,41.65
2019-04-10T06:31:22.910Z,39.20
2019-04-10T06:33:53.559Z,40.78
2019-04-10T06:36:23.273Z,39.95
2019-04-10T06:38:55.307Z,41.08
2019-04-10T06:41:24.909Z,43.65
2019-04-10T06:43:57.211Z,35.10
2019-04-10T06:46:28.537Z,40.52
2019-04-10T06:48:58.842Z,41.00
2019-04-10T06:51:33.537Z,39.88
2019-04-10T06:54:11.323Z,40.13
2019-04-10T06:56:48.368Z,42.08
2019-04-10T06:59:21.226Z,39.63
2019-04-10T07:01:54.522Z,38.67
2019-04-10T07:04:25.148Z,38.83
2019-04-10T07:07:01.838Z,38.00
2019-04-10T07:09:27.172Z,37.90
2019-04-10T07:49:32.989Z,45.30
2019-04-10T07:52:03.628Z,41.47
2019-04-10T07:54:37.161Z,44.90
2019-04-10T07:57:06.777Z,42.43
2019-04-10T07:59:37.923Z,38.10
2019-04-10T08:02:12.392Z,41.50
2019-04-10T08:04:46.000Z,40.23
2019-04-10T08:07:29.824Z,39.10
2019-04-10T08:09:54.157Z,37.23
2019-04-10T08:12:32.415Z,40.97
2019-04-10T08:14:56.553Z,42.83
2019-04-10T08:17:26.623Z,41.77
2019-04-10T08:19:57.265Z,39.83
2019-04-10T08:22:32.755Z,41.02
2019-04-10T08:25:04.609Z,45.92
2019-04-10T08:27:38.471Z,43.15
2019-04-10T08:30:12.154Z,42.20
2019-04-10T08:32:54.918Z,42.62
2019-04-10T08:35:17.441Z,45.12
2019-04-10T08:37:53.830Z,44.60
2019-04-10T08:58:06.178Z,37.77
2019-04-10T09:00:36.998Z,40.43
2019-04-10T09:03:08.744Z,38.40
2019-04-10T09:05:38.822Z,40.87
2019-04-10T09:18:06.195Z,45.67
2019-04-10T09:20:39.186Z,37.97
2019-04-10T09:23:21.786Z,40.37
2019-04-10T09:33:21.955Z,41.37
2019-04-10T09:35:47.515Z,38.77
2019-04-10T09:38:18.833Z,40.13
2019-04-10T09:40:50.267Z,41.23
2019-04-10T09:43:21.249Z,41.20
2019-04-10T09:45:51.588Z,43.43
2019-04-10T09:48:22.307Z,43.73
2019-04-10T09:58:29.946Z,46.48
2019-04-10T10:06:25.180Z,41.73
2019-04-10T10:08:54.575Z,42.97
2019-04-10T10:11:28.615Z,46.40
2019-04-10T10:14:01.906Z,45.97
2019-04-10T10:16:38.558Z,41.73
2019-04-10T10:19:10.121Z,45.83
2019-04-10T10:21:41.423Z,47.70
2019-04-10T10:24:24.689Z,43.40
2019-04-10T10:26:57.762Z,46.00
2019-04-10T10:29:33.551Z,46.43
2019-04-10T10:32:05.649Z,46.70
2019-04-10T10:34:36.641Z,46.83
2019-04-10T10:37:18.691Z,48.73
2019-04-10T10:39:52.841Z,48.20
2019-04-10T10:42:24.361Z,48.35
2019-04-10T10:44:54.577Z,48.48
2019-04-10T10:47:26.290Z,48.70
2019-04-10T10:50:01.069Z,44.30
2019-04-10T10:52:35.365Z,44.67
2019-04-10T10:55:14.047Z,42.97
2019-04-10T10:57:44.707Z,45.73
2019-04-10T11:00:16.987Z,48.70
2019-04-10T11:02:47.750Z,48.90
2019-04-10T11:05:19.048Z,50.53
2019-04-10T11:07:53.101Z,47.67
2019-04-10T11:10:27.460Z,48.00
2019-04-10T11:13:03.878Z,46.57
2019-04-10T11:15:34.183Z,45.87
2019-04-10T11:18:05.350Z,47.43
2019-04-10T11:20:49.942Z,50.13
2019-04-10T11:23:33.801Z,43.77
2019-04-10T11:26:15.995Z,50.53
2019-04-10T11:28:47.948Z,46.60
2019-04-10T11:31:25.183Z,43.40
2019-04-10T11:33:56.916Z,45.13
2019-04-10T11:36:30.065Z,47.30
2019-04-10T11:39:13.847Z,48.93
2019-04-10T11:41:45.633Z,43.30
2019-04-10T11:44:19.939Z,48.07
2019-04-10T11:47:06.456Z,51.70
2019-04-10T11:49:45.142Z,49.40
2019-04-10T11:52:31.186Z,49.75
2019-04-10T11:54:56.643Z,54.30
2019-04-10T11:57:37.331Z,46.80
2019-04-10T12:00:12.234Z,45.00
2019-04-10T12:02:49.389Z,44.97
2019-04-10T12:05:28.711Z,47.00
2019-04-10T12:13:28.518Z,41.13
2019-04-10T12:15:59.616Z,47.60
2019-04-10T12:18:33.228Z,42.30
2019-04-10T12:21:05.232Z,46.23
2019-04-10T12:23:36.802Z,45.87
2019-04-10T12:26:09.742Z,46.50
2019-04-10T12:28:42.372Z,50.13
2019-04-10T12:31:26.073Z,44.77
2019-04-10T12:34:00.463Z,45.67
2019-04-10T12:36:38.561Z,44.13
2019-04-10T12:39:11.997Z,42.93
2019-04-10T12:41:41.680Z,46.63
2019-04-10T12:44:18.785Z,43.20
2019-04-10T12:46:55.507Z,45.50
2019-04-10T12:52:00.297Z,42.40
2019-04-10T12:54:34.179Z,44.93
2019-04-10T12:57:12.724Z,45.60
2019-04-10T12:59:52.062Z,43.73
2019-04-10T13:02:23.433Z,41.97
2019-04-10T13:04:56.654Z,43.80
2019-04-10T13:07:27.879Z,41.77
2019-04-10T13:10:02.460Z,46.57
2019-04-10T13:12:35.492Z,41.93
2019-04-10T13:15:07.747Z,41.70
2019-04-10T13:17:38.610Z,44.33
2019-04-10T13:20:11.472Z,46.60
2019-04-10T13:22:43.093Z,42.87
2019-04-10T13:25:14.224Z,41.77
2019-04-10T13:27:45.148Z,42.43
2019-04-10T13:30:21.148Z,44.13
2019-04-10T13:32:51.930Z,42.85
2019-04-10T13:35:30.241Z,47.70
2019-04-10T13:38:04.119Z,46.18
2019-04-10T13:40:39.534Z,40.73
2019-04-10T13:43:09.811Z,42.40
2019-04-10T13:45:43.746Z,42.87
2019-04-10T13:58:17.252Z,47.00
2019-04-10T14:00:49.762Z,48.85
2019-04-10T14:03:22.873Z,47.05
2019-04-10T14:06:03.652Z,46.53
2019-04-10T14:08:56.042Z,47.53
2019-04-10T14:11:15.622Z,46.63
2019-04-10T14:13:46.786Z,49.25
2019-04-10T14:16:17.041Z,50.48
2019-04-10T14:18:50.874Z,46.70
2019-04-10T14:21:20.760Z,46.53
2019-04-10T14:23:51.353Z,47.53
2019-04-10T14:26:46.767Z,43.60
2019-04-10T14:29:16.391Z,43.97
2019-04-10T14:39:22.900Z,40.40
2019-04-10T14:41:53.936Z,44.17
2019-04-10T14:44:24.642Z,47.43
2019-04-10T14:46:54.955Z,43.57
2019-04-10T14:49:24.989Z,46.87
2019-04-10T14:51:54.781Z,45.43
2019-04-10T14:54:39.892Z,48.27
2019-04-10T14:57:10.617Z,48.03
2019-04-10T14:59:40.392Z,45.90
2019-04-10T15:02:10.664Z,46.00
2019-04-10T15:04:39.970Z,47.20
2019-04-10T15:07:12.271Z,49.97
2019-04-10T15:09:41.515Z,50.17
2019-04-10T15:12:10.703Z,47.13
2019-04-10T15:14:40.144Z,46.70
2019-04-10T15:17:09.802Z,48.83
2019-04-10T15:19:40.536Z,48.43
2019-04-10T15:22:11.670Z,49.87
2019-04-10T15:24:41.098Z,50.73
2019-04-10T15:27:11.516Z,45.67
2019-04-10T15:29:41.244Z,50.07
2019-04-10T15:32:12.677Z,47.53
2019-04-10T15:34:41.959Z,48.80
2019-04-10T15:37:11.441Z,46.90
2019-04-10T15:39:42.154Z,52.20
2019-04-10T15:42:16.868Z,49.47
2019-04-10T15:44:46.630Z,50.30
2019-04-10T15:47:22.171Z,43.73
2019-04-10T15:49:49.376Z,48.60
2019-04-10T15:52:20.164Z,47.53
2019-04-10T15:54:53.388Z,51.20
2019-04-10T15:57:22.814Z,45.60
2019-04-10T15:59:52.584Z,51.63
2019-04-10T16:02:23.867Z,52.35
2019-04-10T16:04:55.453Z,52.80
2019-04-10T16:07:27.452Z,52.33
2019-04-10T16:10:06.590Z,50.23
2019-04-10T16:12:36.314Z,51.80
2019-04-10T16:15:06.119Z,48.43
2019-04-10T16:17:46.552Z,50.53
2019-04-10T16:20:29.945Z,47.47
2019-04-10T16:23:21.841Z,58.60
2019-04-10T16:25:54.448Z,52.63
2019-04-10T16:28:24.443Z,53.13
2019-04-10T16:30:55.446Z,48.13
2019-04-10T16:33:25.831Z,53.87
2019-04-10T16:35:55.088Z,53.23
2019-04-10T16:38:26.711Z,52.20
2019-04-10T16:40:56.772Z,53.20
2019-04-10T16:43:28.515Z,59.37
2019-04-10T16:45:59.364Z,48.77
2019-04-10T16:48:29.786Z,52.20
2019-04-10T16:50:59.751Z,51.00
2019-04-10T16:53:30.172Z,61.27
2019-04-10T16:56:01.025Z,58.00
2019-04-10T16:58:30.611Z,50.67
2019-04-10T17:01:04.396Z,57.07
2019-04-10T17:03:35.951Z,50.77
2019-04-10T17:06:06.096Z,58.13
2019-04-10T17:08:37.351Z,54.23
2019-04-10T17:11:09.193Z,59.70
2019-04-10T17:13:40.445Z,54.17
2019-04-10T17:16:10.292Z,55.33
2019-04-10T17:18:39.734Z,53.97
2019-04-10T17:21:09.207Z,52.80
2019-04-10T17:23:39.001Z,56.93
2019-04-10T17:26:09.024Z,56.27
2019-04-10T17:28:40.715Z,55.07
2019-04-10T17:31:14.640Z,52.50
2019-04-10T17:33:45.919Z,53.37
2019-04-10T17:36:16.938Z,63.13
2019-04-10T17:38:46.990Z,59.27
2019-04-10T17:41:19.678Z,60.87
2019-04-10T17:43:49.594Z,58.37
2019-04-10T17:46:19.408Z,56.77
2019-04-10T17:48:49.625Z,57.53
2019-04-10T17:51:21.864Z,56.70
2019-04-10T18:08:53.551Z,58.07
2019-04-10T18:11:25.724Z,63.27
2019-04-10T18:13:55.596Z,60.90
2019-04-10T18:16:25.645Z,57.47
2019-04-10T18:18:55.902Z,66.53
2019-04-10T18:21:26.966Z,63.33
2019-04-10T18:24:00.063Z,58.93
2019-04-10T18:26:56.595Z,57.63
2019-04-10T18:29:27.413Z,58.23
2019-04-10T20:47:29.388Z,58.57
2019-04-10T20:49:59.578Z,61.70
2019-04-10T20:52:30.361Z,68.07
2019-04-10T20:55:01.402Z,70.55
2019-04-10T20:57:31.926Z,65.72
2019-04-10T21:00:01.835Z,65.25
2019-04-10T21:02:31.483Z,68.97
2019-04-10T21:05:06.391Z,63.52
2019-04-10T21:07:33.573Z,63.55
2019-04-10T21:10:02.763Z,64.90
2019-04-10T21:12:36.409Z,65.05
2019-04-10T21:15:08.920Z,64.58
2019-04-10T21:17:42.336Z,62.08
2019-04-10T21:20:13.703Z,60.98
2019-04-10T21:22:45.345Z,65.50
2019-04-10T21:25:14.993Z,62.53
2019-04-10T21:27:47.103Z,68.62
2019-04-10T21:30:33.911Z,66.10
2019-04-10T21:33:15.047Z,61.83
2019-04-10T21:35:45.616Z,62.30
2019-04-10T21:38:15.225Z,62.73
2019-04-10T21:40:45.384Z,65.62
2019-04-10T21:43:16.146Z,65.45
2019-04-10T21:45:47.562Z,67.40
2019-04-10T21:48:20.009Z,68.85
2019-04-10T21:50:51.567Z,68.67
2019-04-10T21:53:24.072Z,59.93
2019-04-10T21:55:55.526Z,57.07
2019-04-10T21:58:25.704Z,64.73
2019-04-10T22:01:09.902Z,67.65
2019-04-10T22:03:41.493Z,61.40
2019-04-10T22:06:31.686Z,65.52
2019-04-10T22:09:22.905Z,62.50
2019-04-10T22:11:55.321Z,62.93
2019-04-10T22:14:26.129Z,71.45
2019-04-10T22:16:58.187Z,66.15
2019-04-10T22:19:28.540Z,67.35
2019-04-10T22:21:57.953Z,66.90
2019-04-10T22:24:31.859Z,65.30
2019-04-10T22:27:03.041Z,63.95
2019-04-10T22:29:32.819Z,64.43
2019-04-10T22:32:04.085Z,67.17
2019-04-10T22:34:34.251Z,62.45
2019-04-10T22:37:04.274Z,63.20
2019-04-10T22:39:34.292Z,66.30
2019-04-10T22:42:04.008Z,67.82
2019-04-10T22:44:39.308Z,62.80
2019-04-10T22:47:05.306Z,65.30
2019-04-10T22:49:35.093Z,68.37
2019-04-10T22:52:04.715Z,66.77
2019-04-10T22:54:34.640Z,66.77
2019-04-10T22:57:04.766Z,64.67
2019-04-10T22:59:36.140Z,64.97
2019-04-10T23:02:11.331Z,64.42
2019-04-10T23:04:37.173Z,67.08
2019-04-10T23:07:07.279Z,60.30
2019-04-10T23:09:38.205Z,59.33
2019-04-10T23:12:09.843Z,63.95
2019-04-10T23:44:35.873Z,55.87
